createdAt,value
2019-01-17T00:02:47.242Z,72.89
2019-01-17T00:07:55.781Z,73.02
2019-01-17T00:13:16.519Z,73.18
2019-01-17T00:18:30.848Z,72.97
2019-01-17T00:23:51.534Z,72.84
2019-01-17T00:29:12.314Z,72.89
2019-01-17T00:34:20.469Z,72.79
2019-01-17T00:39:31.942Z,72.48
2019-01-17T00:44:46.284Z,72.24
2019-01-17T00:49:54.639Z,72.19
2019-01-17T00:54:57.100Z,72.01
2019-01-17T01:00:02.301Z,71.87
2019-01-17T01:05:22.786Z,71.77
2019-01-17T01:10:25.238Z,71.62
2019-01-17T01:15:27.705Z,71.73
2019-01-17T01:20:36.221Z,71.75
2019-01-17T01:25:38.685Z,71.42
2019-01-17T01:30:56.378Z,71.34
2019-01-17T01:35:58.840Z,71.06
2019-01-17T01:41:01.297Z,70.77
2019-01-17T01:46:09.682Z,70.69
2019-01-17T01:51:24.308Z,70.49
2019-01-17T01:56:26.734Z,70.21
2019-01-17T02:01:29.188Z,69.95
2019-01-17T02:06:31.782Z,69.84
2019-01-17T02:11:34.228Z,69.79
2019-01-17T02:16:36.682Z,69.53
2019-01-17T02:21:39.116Z,69.35
2019-01-17T02:26:42.457Z,69.30
2019-01-17T02:31:43.997Z,69.10
2019-01-17T02:36:46.436Z,69.11
2019-01-17T02:41:48.895Z,69.11
2019-01-17T02:46:51.357Z,69.21
2019-01-17T02:51:53.797Z,69.24
2019-01-17T02:56:56.289Z,69.41
2019-01-17T03:01:58.739Z,69.38
2019-01-17T03:07:01.190Z,69.36
2019-01-17T03:12:03.632Z,69.13
2019-01-17T03:17:06.073Z,69.02
2019-01-17T03:22:08.524Z,69.19
2019-01-17T03:27:10.973Z,69.13
2019-01-17T03:32:13.417Z,68.93
2019-01-17T03:37:15.852Z,68.80
2019-01-17T03:42:18.295Z,68.92
2019-01-17T03:47:20.734Z,68.82
2019-01-17T03:52:23.178Z,68.77
2019-01-17T03:57:25.628Z,68.65
2019-01-17T04:02:28.075Z,68.66
2019-01-17T04:12:26.181Z,68.72
2019-01-17T04:17:28.627Z,68.71
2019-01-17T04:22:31.073Z,68.78
2019-01-17T04:27:33.528Z,68.95
2019-01-17T04:32:35.970Z,69.01
2019-01-17T04:37:38.407Z,69.31
2019-01-17T04:42:40.869Z,69.68
2019-01-17T04:47:43.305Z,69.92
2019-01-17T04:52:45.745Z,70.16
2019-01-17T04:57:48.198Z,70.61
2019-01-17T05:02:50.654Z,70.68
2019-01-17T05:07:53.110Z,70.87
2019-01-17T05:12:55.594Z,71.24
2019-01-17T05:17:58.037Z,71.58
2019-01-17T05:23:00.488Z,72.01
2019-01-17T05:28:02.934Z,72.31
2019-01-17T05:33:05.412Z,72.72
2019-01-17T05:38:07.840Z,73.13
2019-01-17T05:43:10.307Z,73.51
2019-01-17T05:48:12.752Z,73.88
2019-01-17T05:53:15.207Z,74.11
2019-01-17T05:58:17.675Z,74.21
2019-01-17T06:03:20.139Z,74.30
2019-01-17T06:08:22.575Z,74.41
2019-01-17T06:13:25.041Z,74.58
2019-01-17T06:18:27.501Z,74.70
2019-01-17T06:23:29.946Z,74.98
2019-01-17T06:28:32.401Z,75.43
2019-01-17T06:33:34.846Z,75.80
2019-01-17T06:38:37.293Z,75.90
2019-01-17T06:43:39.744Z,76.12
2019-01-17T06:48:42.188Z,76.31
2019-01-17T06:53:44.658Z,76.38
2019-01-17T06:58:47.162Z,76.31
2019-01-17T07:03:49.605Z,76.34
2019-01-17T07:08:52.083Z,76.41
2019-01-17T07:13:54.532Z,76.39
2019-01-17T07:18:56.977Z,76.62
2019-01-17T07:23:59.433Z,76.88
2019-01-17T07:29:01.889Z,77.16
2019-01-17T07:34:05.573Z,77.13
2019-01-17T07:39:08.046Z,77.26
2019-01-17T07:44:10.491Z,77.57
2019-01-17T07:49:12.949Z,77.68
2019-01-17T07:54:15.385Z,77.63
2019-01-17T07:59:17.832Z,77.72
2019-01-17T08:04:20.285Z,77.75
2019-01-17T08:09:22.744Z,77.86
2019-01-17T08:14:25.195Z,77.91
2019-01-17T08:19:27.638Z,78.14
2019-01-17T08:24:30.116Z,78.23
2019-01-17T08:29:32.570Z,78.24
2019-01-17T08:34:35.014Z,78.07
2019-01-17T08:39:37.459Z,78.12
2019-01-17T08:44:39.899Z,78.01
2019-01-17T08:49:42.352Z,77.78
2019-01-17T08:54:44.801Z,77.78
2019-01-17T08:59:47.270Z,77.82
2019-01-17T09:04:49.780Z,77.66
2019-01-17T09:09:52.194Z,77.71
2019-01-17T09:14:54.639Z,77.86
2019-01-17T09:19:57.140Z,77.94
2019-01-17T09:24:59.614Z,78.15
2019-01-17T09:30:02.093Z,78.07
2019-01-17T09:35:04.553Z,78.20
2019-01-17T09:40:07.003Z,78.35
2019-01-17T09:45:09.459Z,78.48
2019-01-17T09:50:20.673Z,78.27
2019-01-17T09:55:23.126Z,78.22
2019-01-17T10:00:28.501Z,77.87
2019-01-17T10:05:30.942Z,78.25
2019-01-17T10:10:33.418Z,77.18
2019-01-17T10:15:35.864Z,76.26
2019-01-17T10:20:56.891Z,77.42
2019-01-17T10:26:02.041Z,77.38
2019-01-17T10:31:19.476Z,72.72
2019-01-17T10:36:24.651Z,70.57
2019-01-17T10:41:38.775Z,70.84
2019-01-17T10:47:02.623Z,70.12
2019-01-17T10:52:23.015Z,73.50
2019-01-17T10:57:28.470Z,71.77
2019-01-17T11:02:33.547Z,70.14
2019-01-17T11:07:42.051Z,69.89
2019-01-17T11:12:44.509Z,72.72
2019-01-17T11:18:05.321Z,72.33
2019-01-17T11:23:19.525Z,72.14
2019-01-17T11:28:27.800Z,71.82
2019-01-17T11:33:36.302Z,69.86
2019-01-17T11:38:41.650Z,67.46
2019-01-17T11:43:44.093Z,69.37
2019-01-17T11:49:01.479Z,65.19
2019-01-17T11:54:09.650Z,66.30
2019-01-17T11:59:17.940Z,66.51
2019-01-17T12:04:31.967Z,64.89
2019-01-17T12:09:34.422Z,64.26
2019-01-17T12:14:36.878Z,62.28
2019-01-17T12:19:39.312Z,60.85
2019-01-17T12:24:41.778Z,60.37
2019-01-17T12:29:44.233Z,60.06
2019-01-17T12:34:46.704Z,62.11
2019-01-17T12:39:49.160Z,61.89
2019-01-17T12:44:51.613Z,61.12
2019-01-17T12:49:54.067Z,60.93
2019-01-17T12:54:56.705Z,61.82
2019-01-17T12:59:59.251Z,61.30
2019-01-17T13:05:01.695Z,60.87
2019-01-17T13:10:04.157Z,61.75
2019-01-17T13:15:06.625Z,61.58
2019-01-17T13:20:09.062Z,59.91
2019-01-17T13:25:11.565Z,60.98
2019-01-17T13:30:14.028Z,60.44
2019-01-17T13:35:16.485Z,61.24
2019-01-17T13:40:18.926Z,60.97
2019-01-17T13:45:21.387Z,60.20
2019-01-17T13:50:23.847Z,60.14
2019-01-17T13:55:26.327Z,60.62
2019-01-17T14:00:28.765Z,62.12
2019-01-17T14:05:31.248Z,61.22
2019-01-17T14:10:33.683Z,60.94
2019-01-17T14:15:36.134Z,61.83
2019-01-17T14:20:38.667Z,62.02
2019-01-17T14:25:41.114Z,62.46
2019-01-17T14:30:43.576Z,62.97
2019-01-17T14:35:46.037Z,62.86
2019-01-17T14:40:48.488Z,61.85
2019-01-17T14:45:50.956Z,62.20
2019-01-17T14:50:53.409Z,61.97
2019-01-17T14:55:55.851Z,62.30
2019-01-17T15:00:58.348Z,62.43
2019-01-17T15:06:00.812Z,62.35
2019-01-17T15:11:03.285Z,62.44
2019-01-17T15:16:05.723Z,62.46
2019-01-17T15:21:08.178Z,62.89
2019-01-17T15:26:10.613Z,62.84
2019-01-17T15:31:13.085Z,63.26
2019-01-17T15:36:15.532Z,63.64
2019-01-17T15:41:17.986Z,63.71
2019-01-17T15:46:20.440Z,63.73
2019-01-17T15:51:22.891Z,63.68
2019-01-17T15:56:25.339Z,63.66
2019-01-17T16:01:27.806Z,63.87
2019-01-17T16:06:30.268Z,64.71
2019-01-17T16:11:32.721Z,66.22
2019-01-17T16:16:35.160Z,67.66
2019-01-17T16:21:37.589Z,68.93
2019-01-17T16:26:40.070Z,69.39
2019-01-17T16:31:42.523Z,69.46
2019-01-17T16:36:44.951Z,69.94
2019-01-17T16:41:47.422Z,70.18
2019-01-17T16:46:49.891Z,70.55
2019-01-17T16:51:52.377Z,70.87
2019-01-17T16:56:54.850Z,71.13
2019-01-17T17:01:57.369Z,71.46
2019-01-17T17:06:59.857Z,71.79
2019-01-17T17:12:02.308Z,72.18
2019-01-17T17:17:04.800Z,72.05
2019-01-17T17:22:07.237Z,72.16
2019-01-17T17:27:09.696Z,72.66
2019-01-17T17:32:12.150Z,72.96
2019-01-17T17:37:14.620Z,72.73
2019-01-17T17:42:17.075Z,73.04
2019-01-17T17:47:19.542Z,73.38
2019-01-17T17:52:22.029Z,73.86
2019-01-17T17:57:24.505Z,74.16
2019-01-17T18:02:27.340Z,74.29
2019-01-17T18:07:29.812Z,74.60
2019-01-17T18:12:32.285Z,74.70
2019-01-17T18:17:34.754Z,74.51
2019-01-17T18:22:37.200Z,74.38
2019-01-17T18:27:39.682Z,74.61
2019-01-17T18:32:42.156Z,74.39
2019-01-17T18:37:44.793Z,73.62
2019-01-17T18:42:47.299Z,73.58
2019-01-17T18:47:49.786Z,73.12
2019-01-17T18:52:52.276Z,72.83
2019-01-17T18:57:54.736Z,72.53
2019-01-17T19:02:57.206Z,72.14
2019-01-17T19:07:59.707Z,71.99
2019-01-17T19:13:02.183Z,71.79
2019-01-17T19:18:04.636Z,71.34
2019-01-17T19:23:07.129Z,70.88
2019-01-17T19:28:09.609Z,70.30
2019-01-17T19:33:12.091Z,70.04
2019-01-17T19:38:14.570Z,69.84
2019-01-17T19:43:17.034Z,69.89
2019-01-17T19:48:19.513Z,70.00
2019-01-17T19:53:22.017Z,70.03
2019-01-17T19:58:28.944Z,70.49
2019-01-17T20:03:26.974Z,70.52
2019-01-17T20:08:29.434Z,70.22
2019-01-17T20:13:32.102Z,70.25
2019-01-17T20:18:34.596Z,70.42
2019-01-17T20:23:37.072Z,70.48
2019-01-17T20:28:39.526Z,70.34
2019-01-17T20:33:41.992Z,70.14
2019-01-17T20:38:44.479Z,70.26
2019-01-17T20:43:46.944Z,70.23
2019-01-17T20:48:49.457Z,70.32
2019-01-17T20:53:51.930Z,70.27
2019-01-17T20:58:54.408Z,70.17
2019-01-17T21:03:56.879Z,70.50
2019-01-17T21:08:59.331Z,70.99
2019-01-17T21:14:01.800Z,71.07
2019-01-17T21:19:04.266Z,71.39
2019-01-17T21:24:06.756Z,71.05
2019-01-17T21:29:09.235Z,70.30
2019-01-17T21:34:11.678Z,70.19
2019-01-17T21:39:14.186Z,70.24
2019-01-17T21:44:16.654Z,70.19
2019-01-17T21:49:19.109Z,69.41
2019-01-17T21:54:21.564Z,68.69
2019-01-17T21:59:24.028Z,68.13
2019-01-17T22:04:26.501Z,67.93
2019-01-17T22:09:28.974Z,67.96
2019-01-17T22:14:31.432Z,67.50
2019-01-17T22:19:33.893Z,67.17
2019-01-17T22:24:36.382Z,67.15
2019-01-17T22:29:38.821Z,67.55
2019-01-17T22:34:41.291Z,67.36
2019-01-17T22:39:43.747Z,67.44
2019-01-17T22:44:46.219Z,67.25
2019-01-17T22:49:48.722Z,66.88
2019-01-17T22:54:51.241Z,66.61
2019-01-17T22:59:53.619Z,66.39
2019-01-17T23:04:56.089Z,66.29
2019-01-17T23:09:58.546Z,66.06
2019-01-17T23:15:02.458Z,65.53
2019-01-17T23:20:03.475Z,65.28
2019-01-17T23:25:05.924Z,65.09
2019-01-17T23:30:11.410Z,64.97
2019-01-17T23:35:13.858Z,64.74
2019-01-17T23:40:16.320Z,64.85
2019-01-17T23:45:18.772Z,64.91
2019-01-17T23:50:21.230Z,64.80
2019-01-17T23:55:23.681Z,64.84
